Majuro, Marshall Islands
Current Conditions -  °F | °C
As of 11:53 PM on Friday 31 Oct 2014 (Local Time) from PKMR Reporting Station
Light Rain Light Rain  
Wind Chill: 82°   Ceiling: 4500
Heat Index: 90°   Visibility: 14mi
Dew Point: 78°   Wind: 7mph
Humidity: 88%   Direction: 150°SSE
Pressure: 29.8"   Gusts: NA
Location:  7.08°N, 171.38°E
Report Text: PKMR 311153Z 15006KT 14SM -RA SCT014 BKN045 BKN110 OVC13028/26 A2980 RMK SHRAE27RAB27 SLP091 60049 70065 8/87/ T0276025510289 20267 50002
Loading
Personal Weather Stations






























Interactive Weather Map
Tropical Storm Tracking
New forecast layout! Learn more

10-Day Weather Forecast

Advertisements
Track Severe Weather on mobile